Air Navigation Services of Czech Republic
Airport: LKTB Updated:  18.07.2018 18:12:06  UTC
 METAR LKTB 18.07. 18:00 ...
METAR LKTB 181800Z 33005KT CAVOK 20/15 Q1013 NOSIG RMK REG QNH 1008=
 TAF LKTB 18.07. 17:00 ...
TAF LKTB 181700Z 1818/2000 31014KT 9999 SCT045      TEMPO 1818/1821 35018G36KT      PROB40 TEMPO 1818/1911 5000 RA BKN040      BECMG 1902/1904 34007KT      BECMG 1913/1915 CAVOK=